Time;durP1;ratioP1;P1;durP2;ratioP2;P2;SDS_P1;SDS_P2;PMS_P1;PMS_P2;Temp;Humidity;BMP_temperature;BMP_pressure;BME280_temperature;BME280_humidity;BME280_pressure;Samples;Min_cycle;Max_cycle;Signal;HPM_P1;HPM_P2
2021/11/28 00:00:25;;;;;;;3.85;1.52;;;;;;;5.81;65.10;95066.22;5051837;28;20526;-79
2021/11/28 00:02:52;;;;;;;3.25;1.42;;;;;;;5.84;65.23;95070.06;5068169;28;20384;-79
2021/11/28 00:05:19;;;;;;;4.35;2.00;;;;;;;5.78;64.83;95065.97;5054840;28;20044;-79
2021/11/28 00:07:52;;;;;;;2.50;1.50;;;;;;;5.82;65.64;95067.75;5052197;28;20403;-79
2021/11/28 00:13:05;;;;;;;4.60;1.65;;;;;;;5.77;64.66;95065.19;5046018;28;20039;-79
2021/11/28 00:15:31;;;;;;;3.60;1.85;;;;;;;5.81;65.43;95062.88;5018271;28;20139;-79
2021/11/28 00:17:57;;;;;;;3.67;1.92;;;;;;;5.76;65.55;95060.31;5018527;28;20470;-79
2021/11/28 00:20:23;;;;;;;4.40;2.22;;;;;;;5.70;65.20;95053.59;5051670;28;20024;-79
2021/11/28 00:22:48;;;;;;;4.00;1.80;;;;;;;5.74;65.41;95058.00;5050758;28;20024;-79
2021/11/28 00:25:15;;;;;;;4.13;1.92;;;;;;;5.78;64.60;95056.41;5015258;28;20244;-79
2021/11/28 00:27:42;;;;;;;5.38;2.17;;;;;;;5.73;65.33;95053.84;5035645;28;20039;-79
2021/11/28 00:30:11;;;;;;;6.10;2.50;;;;;;;5.72;65.24;95060.03;5030898;28;20029;-78
2021/11/28 00:32:37;;;;;;;4.53;2.10;;;;;;;5.78;65.45;95064.16;5038833;28;20527;-79
2021/11/28 00:35:03;;;;;;;4.97;1.92;;;;;;;5.76;65.80;95065.47;5068307;28;20111;-79
2021/11/28 00:37:29;;;;;;;4.28;1.83;;;;;;;5.78;65.61;95076.31;5051237;28;20028;-79
2021/11/28 00:39:54;;;;;;;4.10;1.85;;;;;;;5.73;65.71;95074.50;5051116;28;20127;-79
2021/11/28 00:42:19;;;;;;;5.25;2.95;;;;;;;5.76;65.34;95070.63;5034260;28;20106;-79
2021/11/28 00:44:45;;;;;;;5.93;2.75;;;;;;;5.77;65.51;95067.75;5029957;28;20037;-79
2021/11/28 00:47:11;;;;;;;5.55;2.08;;;;;;;5.80;65.60;95069.81;5046918;28;20064;-79
2021/11/28 00:49:38;;;;;;;5.20;2.33;;;;;;;5.80;65.92;95072.41;5030474;28;20025;-79
2021/11/28 00:52:04;;;;;;;4.80;2.75;;;;;;;5.83;65.77;95068.53;5047495;28;20405;-79
2021/11/28 00:54:30;;;;;;;3.90;2.10;;;;;;;5.86;65.60;95067.22;5047715;28;20597;-79
2021/11/28 00:56:56;;;;;;;5.18;2.45;;;;;;;5.81;65.51;95073.97;5048406;28;20025;-78
2021/11/28 00:59:22;;;;;;;4.13;2.58;;;;;;;5.85;65.81;95078.59;5050303;28;20031;-79
2021/11/28 01:01:48;;;;;;;4.68;2.50;;;;;;;5.79;65.80;95077.84;5033549;28;20479;-79
2021/11/28 01:04:13;;;;;;;4.55;2.53;;;;;;;5.82;65.48;95087.63;5032289;28;20028;-79
2021/11/28 01:06:39;;;;;;;4.40;2.30;;;;;;;5.86;65.98;95090.47;5029314;28;20025;-79
2021/11/28 01:09:08;;;;;;;5.05;2.55;;;;;;;5.72;65.81;95091.03;5013733;28;20459;-79
2021/11/28 01:11:34;;;;;;;3.67;2.58;;;;;;;5.79;65.75;95091.53;5050065;28;20040;-79
2021/11/28 01:14:00;;;;;;;6.90;2.92;;;;;;;5.84;65.91;95090.72;5049971;28;20032;-79
2021/11/28 01:16:25;;;;;;;6.93;2.50;;;;;;;5.79;65.63;95093.31;5033515;28;20403;-79
2021/11/28 01:18:51;;;;;;;4.47;2.20;;;;;;;5.83;65.47;95096.94;5017420;28;20086;-79
2021/11/28 01:21:17;;;;;;;5.78;2.10;;;;;;;5.84;66.00;95097.72;5029925;28;20043;-79
2021/11/28 01:23:43;;;;;;;4.55;1.90;;;;;;;5.87;65.34;95094.59;5013612;28;20465;-79
2021/11/28 01:26:08;;;;;;;4.18;2.30;;;;;;;5.84;65.66;95088.13;5019551;28;20064;-79
2021/11/28 01:28:34;;;;;;;5.30;2.40;;;;;;;5.84;65.52;95092.53;5046571;28;20378;-79
2021/11/28 01:30:59;;;;;;;5.72;3.08;;;;;;;5.80;65.89;95100.03;5038811;28;20035;-79
2021/11/28 01:33:25;;;;;;;5.32;2.60;;;;;;;5.79;65.61;95099.28;5070749;28;20432;-79
2021/11/28 01:35:50;;;;;;;4.85;2.50;;;;;;;5.82;65.92;95096.16;5037061;28;20020;-79
2021/11/28 01:38:18;;;;;;;4.75;2.35;;;;;;;5.79;65.81;95096.69;5070197;28;20047;-79
2021/11/28 01:40:45;;;;;;;4.97;2.80;;;;;;;5.78;65.52;95089.97;5053784;28;20527;-79
2021/11/28 01:43:12;;;;;;;5.40;2.38;;;;;;;5.78;65.51;95097.72;5053303;28;20073;-79
2021/11/28 01:45:39;;;;;;;4.82;2.30;;;;;;;5.80;65.44;95100.81;5069633;28;20036;-79
2021/11/28 01:48:10;;;;;;;4.35;2.55;;;;;;;5.67;65.56;95105.78;5053518;28;20060;-79
2021/11/28 01:50:38;;;;;;;7.53;2.95;;;;;;;5.77;65.74;95105.72;5069694;28;20032;-79
2021/11/28 01:53:10;;;;;;;4.28;2.50;;;;;;;5.80;64.95;95110.38;5057715;28;20123;-78
2021/11/28 01:55:36;;;;;;;4.38;2.70;;;;;;;5.85;65.60;95107.00;5049339;28;20499;-79
2021/11/28 01:58:03;;;;;;;5.55;2.10;;;;;;;5.83;65.29;95115.00;5037670;28;20028;-79
2021/11/28 02:00:32;;;;;;;6.50;2.70;;;;;;;5.79;65.80;95119.16;5053743;28;20400;-80
2021/11/28 02:02:58;;;;;;;6.72;2.90;;;;;;;5.81;66.06;95117.84;5069839;28;20028;-79
2021/11/28 02:05:25;;;;;;;4.40;2.25;;;;;;;5.83;65.78;95122.75;5053006;28;20137;-79
2021/11/28 02:07:50;;;;;;;3.65;2.45;;;;;;;5.88;65.39;95127.13;5070165;28;20653;-79
2021/11/28 02:10:16;;;;;;;8.02;2.63;;;;;;;5.86;65.33;95122.25;5052287;28;20040;-79
2021/11/28 02:12:44;;;;;;;8.07;2.47;;;;;;;5.78;65.78;95118.38;5050469;28;20056;-79
2021/11/28 02:15:10;;;;;;;5.22;2.80;;;;;;;5.84;65.60;95110.63;5049951;28;20035;-79
2021/11/28 02:17:36;;;;;;;4.60;2.17;;;;;;;5.83;65.14;95117.59;5017525;28;20040;-79
2021/11/28 02:20:05;;;;;;;4.55;2.55;;;;;;;5.82;64.90;95111.66;5050734;28;20384;-79
2021/11/28 02:22:30;;;;;;;3.45;2.15;;;;;;;5.92;65.11;95112.66;5034205;28;20028;-79
2021/11/28 02:24:55;;;;;;;4.35;2.30;;;;;;;5.93;64.21;95119.34;5033146;28;20032;-79
2021/11/28 02:27:21;;;;;;;6.03;2.90;;;;;;;5.89;65.24;95123.50;5033817;28;20476;-79
2021/11/28 02:29:46;;;;;;;6.72;2.40;;;;;;;5.89;65.24;95113.19;5050138;28;20039;-79
2021/11/28 02:32:12;;;;;;;4.32;2.03;;;;;;;5.93;65.34;95114.19;5048258;28;20028;-79
2021/11/28 02:34:38;;;;;;;4.55;1.80;;;;;;;5.97;65.00;95112.66;5031373;28;20108;-79
2021/11/28 02:37:04;;;;;;;4.75;2.15;;;;;;;5.93;65.54;95109.81;5013397;28;20033;-79
2021/11/28 02:39:30;;;;;;;4.53;1.98;;;;;;;5.92;65.40;95108.25;5030444;28;20091;-79
2021/11/28 02:41:56;;;;;;;3.65;2.00;;;;;;;5.93;65.17;95120.13;5030564;28;20112;-79
2021/11/28 02:44:21;;;;;;;5.43;2.92;;;;;;;5.88;64.74;95107.25;5030256;28;20101;-79
2021/11/28 02:46:47;;;;;;;4.22;2.03;;;;;;;5.88;64.93;95114.19;4997158;28;20033;-79
2021/11/28 02:49:15;;;;;;;3.38;1.95;;;;;;;5.88;65.40;95112.41;5013436;28;20183;-79
2021/11/28 02:51:41;;;;;;;3.40;1.83;;;;;;;5.85;65.45;95112.94;5031882;28;20056;-79
2021/11/28 02:54:07;;;;;;;3.67;2.10;;;;;;;5.82;64.69;95116.81;5033369;28;20244;-79
2021/11/28 02:56:33;;;;;;;3.65;1.50;;;;;;;5.81;65.46;95109.34;5017457;28;20159;-79
2021/11/28 02:59:00;;;;;;;4.32;1.88;;;;;;;5.79;65.49;95117.34;5017266;28;20051;-79
2021/11/28 03:01:29;;;;;;;5.30;1.80;;;;;;;5.71;64.86;95117.13;5017558;28;20659;-79
2021/11/28 03:03:54;;;;;;;3.45;2.08;;;;;;;5.84;64.07;95113.97;5033150;28;20040;-79
2021/11/28 03:06:20;;;;;;;4.25;2.00;;;;;;;5.88;65.33;95112.41;5019870;28;20473;-79
2021/11/28 03:08:46;;;;;;;3.38;1.73;;;;;;;5.90;65.15;95107.75;5017365;28;20029;-79
2021/11/28 03:11:14;;;;;;;3.95;1.85;;;;;;;5.80;64.42;95103.41;5027940;28;20319;-79
2021/11/28 03:13:42;;;;;;;3.92;2.10;;;;;;;5.79;65.61;95112.19;5017281;28;20025;-79
2021/11/28 03:16:12;;;;;;;4.22;2.72;;;;;;;5.71;64.73;95109.38;5032768;28;20112;-79
2021/11/28 03:18:37;;;;;;;5.20;2.10;;;;;;;5.76;65.08;95112.72;5016945;28;20476;-79
2021/11/28 03:21:33;;;;;;;3.65;2.17;;;;;;;5.51;65.19;95116.13;5051318;28;20029;-79
2021/11/28 03:24:04;;;;;;;3.28;1.73;;;;;;;5.56;65.45;95112.78;5013993;28;20504;-80
2021/11/28 03:26:40;;;;;;;3.28;2.08;;;;;;;5.54;65.44;95115.63;5016587;28;20044;-79
2021/11/28 03:29:09;;;;;;;2.72;1.88;;;;;;;5.69;66.01;95119.97;5032999;28;20052;-79
2021/11/28 03:31:37;;;;;;;2.95;1.92;;;;;;;5.76;65.37;95125.63;5043969;28;20058;-79
2021/11/28 03:34:04;;;;;;;2.65;1.80;;;;;;;5.79;66.16;95127.69;5016642;28;20059;-79
2021/11/28 03:36:31;;;;;;;3.33;1.80;;;;;;;5.76;64.89;95127.44;5033272;28;20357;-79
2021/11/28 03:38:57;;;;;;;4.03;2.00;;;;;;;5.90;65.04;95122.47;5016505;28;20029;-79
2021/11/28 03:41:25;;;;;;;5.05;2.58;;;;;;;5.74;64.83;95127.72;5033499;28;20075;-79
2021/11/28 03:43:52;;;;;;;4.80;2.30;;;;;;;5.84;65.33;95123.53;5032189;28;20055;-79
2021/11/28 03:46:18;;;;;;;3.53;2.10;;;;;;;5.85;65.59;95118.09;5017117;28;20128;-79
2021/11/28 03:48:43;;;;;;;4.65;2.25;;;;;;;5.81;64.36;95123.03;5052756;28;20127;-79
2021/11/28 03:51:09;;;;;;;3.65;1.98;;;;;;;5.88;65.41;95120.16;5035950;28;20035;-79
2021/11/28 03:53:35;;;;;;;6.28;1.98;;;;;;;5.84;65.04;95126.88;5053005;28;20044;-79
2021/11/28 03:56:03;;;;;;;3.05;1.90;;;;;;;5.84;64.65;95126.13;5035634;28;20389;-79
2021/11/28 03:58:29;;;;;;;4.55;2.00;;;;;;;5.94;64.78;95126.84;5019804;28;20034;-79
2021/11/28 04:00:58;;;;;;;5.32;2.05;;;;;;;5.74;65.05;95132.06;5035825;28;20519;-79
2021/11/28 04:03:24;;;;;;;3.28;1.88;;;;;;;5.77;64.58;95132.31;5069466;28;20194;-79
2021/11/28 04:05:50;;;;;;;3.10;1.88;;;;;;;5.73;64.78;95123.56;5035704;28;20037;-79
2021/11/28 04:08:15;;;;;;;3.08;1.58;;;;;;;5.83;65.21;95120.19;5070272;28;20036;-79
2021/11/28 04:10:40;;;;;;;3.55;1.90;;;;;;;5.73;65.36;95117.63;5052366;28;20033;-80
2021/11/28 04:13:06;;;;;;;3.45;2.00;;;;;;;5.83;65.47;95112.44;5035472;28;20480;-79
2021/11/28 04:15:32;;;;;;;3.53;1.80;;;;;;;5.75;65.31;95121.50;5070234;28;20029;-79
2021/11/28 04:17:58;;;;;;;4.15;2.13;;;;;;;5.73;64.94;95110.66;5052349;28;20137;-79
2021/11/28 04:20:24;;;;;;;2.92;2.20;;;;;;;5.67;65.51;95116.09;5052503;28;20024;-79
2021/11/28 04:22:49;;;;;;;4.63;2.10;;;;;;;5.70;65.20;95115.56;5034655;28;20047;-79
2021/11/28 04:25:15;;;;;;;2.72;1.90;;;;;;;5.69;64.86;95119.97;5035389;28;20047;-79
2021/11/28 04:27:41;;;;;;;4.80;1.95;;;;;;;5.79;64.75;95117.34;5035887;28;20459;-79
2021/11/28 04:30:08;;;;;;;3.40;2.58;;;;;;;5.74;65.42;95124.34;5018782;28;20116;-80
2021/11/28 04:32:33;;;;;;;4.30;2.50;;;;;;;5.66;65.27;95124.91;5069137;28;20035;-79
2021/11/28 04:34:59;;;;;;;4.15;2.58;;;;;;;5.68;64.91;95123.59;5069417;28;20109;-79
2021/11/28 04:37:24;;;;;;;4.82;2.88;;;;;;;5.75;65.70;95118.13;5051932;28;20032;-80
2021/11/28 04:39:50;;;;;;;4.47;2.05;;;;;;;5.80;64.13;95121.47;5018981;28;20711;-79
2021/11/28 04:42:15;;;;;;;3.10;2.25;;;;;;;5.85;65.35;95117.34;5034986;28;20545;-79
2021/11/28 04:44:40;;;;;;;5.53;2.58;;;;;;;5.82;65.39;95119.38;5035032;28;20064;-79
2021/11/28 04:47:06;;;;;;;6.20;3.13;;;;;;;5.77;64.82;95106.50;5051696;28;20036;-78
2021/11/28 04:49:31;;;;;;;7.97;2.63;;;;;;;5.82;64.99;95109.06;5051918;28;20040;-79
2021/11/28 04:51:57;;;;;;;4.22;2.75;;;;;;;5.86;64.90;95116.28;5034978;28;20031;-79
2021/11/28 04:54:23;;;;;;;3.85;2.58;;;;;;;5.84;65.03;95108.78;5034782;28;20032;-80
2021/11/28 04:56:48;;;;;;;3.63;2.10;;;;;;;5.79;65.17;95101.06;5034991;28;20028;-80
2021/11/28 04:59:14;;;;;;;3.47;2.28;;;;;;;5.85;65.33;95104.44;5035090;28;20048;-80
2021/11/28 05:01:39;;;;;;;5.15;2.70;;;;;;;5.84;64.97;95105.44;5051609;28;20470;-79
2021/11/28 05:04:05;;;;;;;4.10;2.15;;;;;;;5.85;65.00;95107.00;5034116;28;20045;-80
2021/11/28 05:06:31;;;;;;;4.60;1.95;;;;;;;5.86;65.41;95103.38;5065505;28;20028;-79
2021/11/28 05:08:56;;;;;;;4.47;2.28;;;;;;;5.84;65.28;95100.28;5031519;28;20042;-79
2021/11/28 05:11:22;;;;;;;4.05;2.50;;;;;;;5.91;64.84;95101.56;5006532;28;20029;-80
2021/11/28 05:13:47;;;;;;;3.85;2.33;;;;;;;5.91;65.15;95096.41;5033799;28;20028;-79
2021/11/28 05:16:12;;;;;;;3.85;2.58;;;;;;;5.94;64.86;95097.66;5034314;28;20029;-79
2021/11/28 05:18:38;;;;;;;5.25;2.50;;;;;;;5.86;64.25;95088.66;5034691;28;20507;-80
2021/11/28 05:21:03;;;;;;;4.55;2.42;;;;;;;5.75;64.85;95093.09;5051187;28;20024;-79
2021/11/28 05:23:29;;;;;;;4.50;2.47;;;;;;;5.83;64.06;95099.53;5034832;28;20181;-79
2021/11/28 05:25:54;;;;;;;5.15;1.90;;;;;;;5.70;64.89;95100.84;5017657;28;20541;-80
2021/11/28 05:28:20;;;;;;;4.38;1.90;;;;;;;5.80;64.89;95102.63;5018210;28;20051;-79
2021/11/28 05:30:45;;;;;;;4.82;2.25;;;;;;;5.77;65.15;95106.50;5021867;28;20395;-79
2021/11/28 05:33:11;;;;;;;3.35;1.73;;;;;;;5.71;64.68;95110.16;5070900;28;20063;-79
2021/11/28 05:35:36;;;;;;;2.30;1.73;;;;;;;5.75;64.70;95116.31;5037086;28;20032;-80
2021/11/28 05:38:02;;;;;;;3.53;1.85;;;;;;;5.81;64.80;95112.69;5070588;28;20043;-79
2021/11/28 05:40:27;;;;;;;2.88;1.52;;;;;;;5.78;64.71;95115.03;5037364;28;20618;-80
2021/11/28 05:42:53;;;;;;;3.50;1.80;;;;;;;5.72;64.88;95109.09;5053919;28;20384;-80
2021/11/28 05:45:21;;;;;;;2.38;1.67;;;;;;;5.73;64.87;95122.81;5053426;28;20085;-80
2021/11/28 05:47:48;;;;;;;2.67;1.42;;;;;;;5.76;65.00;95120.47;5053922;28;20043;-80
2021/11/28 05:50:14;;;;;;;2.58;1.50;;;;;;;5.69;64.96;95114.81;5034632;28;20032;-80
2021/11/28 05:52:43;;;;;;;4.25;2.00;;;;;;;5.71;65.02;95124.88;5030577;28;20481;-80
2021/11/28 05:55:10;;;;;;;2.85;1.85;;;;;;;5.63;65.19;95115.84;5013990;28;20033;-80
2021/11/28 05:57:35;;;;;;;3.42;1.83;;;;;;;5.70;65.42;95121.50;5030654;28;20325;-80
2021/11/28 06:00:03;;;;;;;2.60;1.45;;;;;;;5.68;64.98;95118.41;5013110;28;20033;-79
2021/11/28 06:02:28;;;;;;;4.07;1.95;;;;;;;5.70;65.17;95118.94;5047201;28;20033;-79
2021/11/28 06:04:54;;;;;;;3.95;1.98;;;;;;;5.72;65.35;95119.44;5013249;28;20047;-79
2021/11/28 06:07:19;;;;;;;3.85;1.88;;;;;;;5.71;64.54;95109.38;5012883;28;20091;-79
2021/11/28 06:09:44;;;;;;;2.58;1.70;;;;;;;5.78;64.98;95115.81;5029730;28;20065;-78
2021/11/28 06:12:10;;;;;;;4.60;2.20;;;;;;;5.74;65.35;95119.97;5047604;28;20421;-79
2021/11/28 06:14:35;;;;;;;4.22;2.63;;;;;;;5.68;64.57;95115.84;5013459;28;20068;-79
2021/11/28 06:17:01;;;;;;;4.45;2.67;;;;;;;5.68;65.05;95121.00;5030024;28;20352;-79
2021/11/28 06:19:27;;;;;;;4.30;2.38;;;;;;;5.69;65.38;95119.19;5013368;28;20041;-79
2021/11/28 06:21:53;;;;;;;3.95;2.53;;;;;;;5.66;65.00;95125.66;5013311;28;20477;-79
2021/11/28 06:24:18;;;;;;;4.90;2.53;;;;;;;5.68;64.98;95120.25;5026830;28;20044;-79
2021/11/28 06:26:44;;;;;;;3.30;2.20;;;;;;;5.69;64.53;95119.97;5032272;28;20040;-79
2021/11/28 06:29:09;;;;;;;7.60;3.22;;;;;;;5.72;65.01;95114.25;5049083;28;20123;-79
2021/11/28 06:31:35;;;;;;;5.75;3.13;;;;;;;5.73;64.22;95110.66;5059375;28;20032;-79
2021/11/28 06:34:00;;;;;;;5.47;3.00;;;;;;;5.72;64.84;95116.84;5051718;28;20035;-79
2021/11/28 06:36:26;;;;;;;5.97;3.50;;;;;;;5.75;65.33;95116.31;5053505;28;20036;-80
2021/11/28 06:38:51;;;;;;;5.03;3.45;;;;;;;5.74;65.05;95124.34;5053569;28;20058;-79
2021/11/28 06:41:17;;;;;;;9.38;3.33;;;;;;;5.82;64.31;95127.13;5036558;28;20046;-79
2021/11/28 06:43:42;;;;;;;5.90;3.10;;;;;;;5.81;64.75;95117.09;5048818;28;20122;-79
2021/11/28 06:46:08;;;;;;;7.38;3.55;;;;;;;5.81;65.31;95127.44;5049748;28;20031;-80
2021/11/28 06:48:33;;;;;;;6.35;3.70;;;;;;;5.70;65.08;95124.09;5066296;28;20653;-79
2021/11/28 06:50:59;;;;;;;5.93;3.75;;;;;;;5.70;64.79;95125.91;5066895;28;20028;-79
2021/11/28 06:53:24;;;;;;;6.00;3.38;;;;;;;5.71;65.55;95135.22;5068146;28;20109;-79
2021/11/28 06:55:50;;;;;;;6.78;3.60;;;;;;;5.74;64.92;95130.28;5066614;28;20380;-79
2021/11/28 06:58:15;;;;;;;7.22;3.30;;;;;;;5.71;65.44;95128.22;5033248;28;20028;-79
2021/11/28 07:00:41;;;;;;;7.20;3.65;;;;;;;5.77;65.15;95134.91;5035181;28;20036;-79
2021/11/28 07:03:07;;;;;;;6.30;3.80;;;;;;;5.84;64.77;95137.19;5014010;28;20017;-79
2021/11/28 07:05:32;;;;;;;5.70;3.42;;;;;;;5.83;64.54;95135.69;5012979;28;20124;-79
2021/11/28 07:07:58;;;;;;;6.10;3.25;;;;;;;5.86;65.11;95140.31;5036667;28;20068;-79
2021/11/28 07:10:23;;;;;;;6.38;3.15;;;;;;;5.84;64.37;95141.59;5066978;28;20028;-79
2021/11/28 07:12:48;;;;;;;5.55;3.28;;;;;;;5.89;64.23;95146.75;5028074;28;20037;-79
2021/11/28 07:15:14;;;;;;;6.38;3.50;;;;;;;5.85;64.34;95156.06;5045785;28;20039;-79
2021/11/28 07:17:39;;;;;;;5.60;3.28;;;;;;;5.81;65.04;95156.59;5029773;28;20033;-80
2021/11/28 07:20:05;;;;;;;5.57;3.08;;;;;;;5.76;64.75;95155.84;5029844;28;20075;-80
2021/11/28 07:22:33;;;;;;;7.70;3.40;;;;;;;5.81;65.14;95156.59;5029653;28;20024;-79
2021/11/28 07:24:58;;;;;;;5.63;3.30;;;;;;;5.76;64.53;95156.63;5029156;28;20064;-79
2021/11/28 07:27:24;;;;;;;6.03;3.53;;;;;;;5.84;64.38;95162.25;5046847;28;20056;-79
2021/11/28 07:29:49;;;;;;;5.75;3.47;;;;;;;5.77;64.48;95160.72;5029709;28;20025;-79
2021/11/28 07:32:15;;;;;;;5.00;3.35;;;;;;;5.77;64.93;95165.13;5048603;28;20036;-79
2021/11/28 07:34:40;;;;;;;5.28;2.95;;;;;;;5.75;64.82;95165.38;5012771;28;20036;-79
2021/11/28 07:37:05;;;;;;;7.97;3.20;;;;;;;5.71;64.78;95158.44;5013660;28;20127;-79
2021/11/28 07:39:31;;;;;;;6.72;2.67;;;;;;;5.69;65.44;95163.88;5033744;28;20041;-79
2021/11/28 07:41:56;;;;;;;7.25;3.42;;;;;;;5.74;65.14;95166.44;5033007;28;20318;-79
2021/11/28 07:44:22;;;;;;;7.68;3.33;;;;;;;5.75;65.11;95169.78;5016093;28;20021;-79
2021/11/28 07:46:47;;;;;;;4.68;3.03;;;;;;;5.77;65.12;95173.63;5033473;28;20048;-79
2021/11/28 07:49:13;;;;;;;4.63;2.90;;;;;;;5.79;64.86;95165.63;5032730;28;20450;-79
2021/11/28 07:51:39;;;;;;;5.13;3.20;;;;;;;5.79;65.03;95166.41;5020556;28;20265;-79
2021/11/28 07:54:06;;;;;;;4.90;2.75;;;;;;;5.79;65.05;95166.41;5050776;28;20275;-79
2021/11/28 07:56:32;;;;;;;6.60;3.38;;;;;;;5.79;64.50;95161.25;5015934;28;20063;-79
2021/11/28 07:58:57;;;;;;;6.43;3.80;;;;;;;5.79;63.85;95163.84;5015910;28;20033;-79
2021/11/28 08:01:23;;;;;;;6.22;3.50;;;;;;;5.81;64.94;95164.34;5032680;28;20272;-79
2021/11/28 08:03:48;;;;;;;7.50;3.65;;;;;;;5.88;64.60;95165.84;5015684;28;20037;-79
2021/11/28 08:06:14;;;;;;;7.25;3.40;;;;;;;5.86;64.73;95167.94;5015835;28;20439;-79
2021/11/28 08:08:40;;;;;;;5.78;3.50;;;;;;;5.92;64.43;95164.31;5049042;28;20036;-79
2021/11/28 08:11:05;;;;;;;8.70;3.95;;;;;;;5.87;64.56;95166.91;5032318;28;20386;-79
2021/11/28 08:13:31;;;;;;;6.35;3.70;;;;;;;5.92;64.66;95177.22;5015114;28;20033;-79
2021/11/28 08:15:56;;;;;;;7.55;3.25;;;;;;;5.86;65.13;95179.06;5015945;28;20032;-79
2021/11/28 08:18:22;;;;;;;5.53;3.05;;;;;;;5.89;65.03;95175.16;5032077;28;20033;-79
2021/11/28 08:20:47;;;;;;;7.05;3.55;;;;;;;5.91;64.97;95183.41;5032070;28;20029;-79
2021/11/28 08:23:13;;;;;;;6.15;3.13;;;;;;;5.95;64.96;95185.22;5037533;28;20309;-79
2021/11/28 08:25:38;;;;;;;6.45;3.58;;;;;;;6.03;64.75;95183.16;5051746;28;20086;-79
2021/11/28 08:28:08;;;;;;;5.25;3.65;;;;;;;5.99;64.10;95185.50;5035493;28;20519;-79
2021/11/28 08:30:38;;;;;;;6.15;3.40;;;;;;;6.02;64.60;95197.13;5035237;28;20111;-79
2021/11/28 08:33:05;;;;;;;5.15;3.13;;;;;;;6.01;64.37;95193.75;5051880;28;20028;-79
2021/11/28 08:35:31;;;;;;;6.95;3.22;;;;;;;6.06;64.44;95193.72;5034555;28;20036;-79
2021/11/28 08:37:57;;;;;;;4.82;2.97;;;;;;;6.07;64.06;95197.88;5035421;28;20218;-79
2021/11/28 08:40:24;;;;;;;6.00;3.35;;;;;;;6.13;64.45;95201.97;5035398;28;20036;-78
2021/11/28 08:42:49;;;;;;;6.93;3.60;;;;;;;6.22;63.60;95202.22;5052035;28;20095;-79
2021/11/28 08:45:16;;;;;;;6.68;3.75;;;;;;;6.16;64.48;95211.00;5035002;28;20111;-79
2021/11/28 08:47:42;;;;;;;4.60;3.40;;;;;;;6.16;64.14;95213.59;5051958;28;20536;-79
2021/11/28 08:50:14;;;;;;;4.95;3.38;;;;;;;6.10;64.00;95218.00;5050483;28;20028;-78
2021/11/28 08:52:40;;;;;;;4.07;2.85;;;;;;;6.16;64.29;95213.59;5051834;28;20028;-79
2021/11/28 08:55:07;;;;;;;4.78;2.42;;;;;;;6.21;64.37;95217.97;5051332;28;20392;-79
2021/11/28 08:57:32;;;;;;;3.72;2.38;;;;;;;6.16;64.13;95226.50;5053971;28;20055;-79
2021/11/28 08:59:57;;;;;;;3.85;2.10;;;;;;;6.22;64.25;95219.50;5078716;28;20039;-79
2021/11/28 09:02:23;;;;;;;5.32;2.47;;;;;;;6.28;64.14;95216.66;5018358;28;20236;-78
2021/11/28 09:04:49;;;;;;;4.18;2.70;;;;;;;6.32;64.16;95216.88;5041047;28;20031;-78
2021/11/28 09:07:14;;;;;;;4.38;3.08;;;;;;;6.42;64.14;95214.25;5053205;28;20110;-78
2021/11/28 09:09:39;;;;;;;3.78;2.20;;;;;;;6.40;63.16;95216.34;5032797;28;20114;-78
2021/11/28 09:12:06;;;;;;;3.47;2.20;;;;;;;6.40;63.97;95216.34;5032160;28;20040;-79
2021/11/28 09:14:31;;;;;;;5.07;2.47;;;;;;;6.45;64.35;95215.56;5050542;28;20040;-79
2021/11/28 09:16:57;;;;;;;5.32;2.67;;;;;;;6.38;63.81;95228.75;5018133;28;20027;-78
2021/11/28 09:21:49;;;;;;;4.90;2.88;;;;;;;6.33;63.69;95233.94;5034447;28;20112;-78
2021/11/28 09:26:58;;;;;;;4.72;2.55;;;;;;;6.52;63.53;95227.13;5056960;28;20032;-78
2021/11/28 09:29:24;;;;;;;5.00;2.55;;;;;;;6.46;63.55;95228.22;5071238;28;20031;-78
2021/11/28 09:31:49;;;;;;;6.13;3.08;;;;;;;6.45;63.14;95237.00;5070482;28;20506;-79
2021/11/28 09:34:14;;;;;;;4.45;2.50;;;;;;;6.52;63.65;95229.72;5071017;28;20032;-78
2021/11/28 09:36:40;;;;;;;4.43;2.63;;;;;;;6.47;63.24;95232.31;5053781;28;20117;-78
2021/11/28 09:39:06;;;;;;;3.80;2.17;;;;;;;6.44;62.67;95232.09;5037609;28;20445;-78
2021/11/28 09:41:36;;;;;;;4.10;2.50;;;;;;;6.25;63.54;95235.25;5054380;28;20024;-78
2021/11/28 09:44:07;;;;;;;4.93;2.53;;;;;;;6.29;62.91;95232.91;5088648;28;20035;-78
2021/11/28 09:46:33;;;;;;;4.50;2.85;;;;;;;6.42;63.29;95229.75;5038169;28;20042;-78
2021/11/28 09:49:03;;;;;;;4.55;2.60;;;;;;;6.28;63.96;95224.41;5053768;28;20548;-78
2021/11/28 09:51:29;;;;;;;4.50;2.67;;;;;;;6.41;63.70;95223.06;5070824;28;20403;-78
2021/11/28 09:53:59;;;;;;;4.30;2.50;;;;;;;6.35;63.61;95224.13;5028938;28;20032;-79
2021/11/28 09:56:26;;;;;;;4.80;2.70;;;;;;;6.45;63.44;95223.31;5047142;28;20051;-78
2021/11/28 09:58:51;;;;;;;4.05;2.50;;;;;;;6.46;64.06;95215.28;5014462;28;20036;-78
2021/11/28 10:01:17;;;;;;;4.00;2.53;;;;;;;6.50;63.23;95221.47;5029499;28;20041;-78
2021/11/28 10:03:42;;;;;;;4.32;2.42;;;;;;;6.59;63.69;95223.50;5030130;28;20397;-78
2021/11/28 10:06:10;;;;;;;3.63;2.30;;;;;;;6.54;63.82;95209.53;5030386;28;20102;-78
2021/11/28 10:08:36;;;;;;;4.43;2.75;;;;;;;6.56;63.20;95215.25;4997856;28;20029;-78
2021/11/28 10:11:10;;;;;;;3.72;2.40;;;;;;;6.55;63.10;95218.84;5030306;28;20375;-78
2021/11/28 10:13:36;;;;;;;3.97;2.35;;;;;;;6.72;63.17;95207.41;5048057;28;20094;-78
2021/11/28 10:16:01;;;;;;;5.78;2.60;;;;;;;6.72;63.17;95215.91;5030703;28;20480;-78
2021/11/28 10:18:26;;;;;;;3.63;2.30;;;;;;;6.72;63.48;95218.50;4997904;28;20037;-78
2021/11/28 10:20:53;;;;;;;4.35;2.72;;;;;;;6.69;62.63;95213.09;5014210;28;20037;-78
2021/11/28 10:23:19;;;;;;;3.50;2.30;;;;;;;6.72;63.81;95228.09;5041320;28;20024;-78
2021/11/28 10:25:44;;;;;;;3.60;2.25;;;;;;;6.78;62.58;95216.66;5070555;28;20043;-78
2021/11/28 10:28:13;;;;;;;3.83;2.63;;;;;;;6.73;63.25;95209.72;5088603;28;20035;-78
2021/11/28 10:30:44;;;;;;;5.03;2.63;;;;;;;6.78;63.03;95208.13;5053397;28;20488;-79
2021/11/28 10:33:12;;;;;;;4.45;2.38;;;;;;;6.74;63.55;95202.72;5043618;28;20032;-79
2021/11/28 10:35:40;;;;;;;3.88;2.55;;;;;;;6.77;63.48;95204.78;5050123;28;20044;-78
2021/11/28 10:38:12;;;;;;;3.72;2.45;;;;;;;6.51;63.45;95204.91;5049879;28;20131;-78
2021/11/28 10:40:43;;;;;;;4.90;2.65;;;;;;;6.56;63.34;95207.47;5033519;28;20150;-78
2021/11/28 10:43:16;;;;;;;3.80;2.75;;;;;;;6.70;63.44;95214.63;5033138;28;20067;-78
2021/11/28 10:45:48;;;;;;;5.53;2.85;;;;;;;6.66;62.62;95204.03;5016764;28;20033;-78
2021/11/28 10:48:21;;;;;;;3.67;1.95;;;;;;;6.67;63.40;95200.44;5033439;28;20040;-79
2021/11/28 10:50:47;;;;;;;3.55;2.38;;;;;;;6.66;63.17;95206.63;5046505;28;20033;-79
2021/11/28 10:53:15;;;;;;;5.53;2.72;;;;;;;6.65;63.39;95199.13;5046212;28;20036;-79
2021/11/28 10:55:43;;;;;;;2.70;2.10;;;;;;;6.71;63.44;95200.66;5013882;28;20147;-79
2021/11/28 10:58:11;;;;;;;4.10;1.90;;;;;;;6.62;63.40;95200.47;5026301;28;20092;-79
2021/11/28 11:00:39;;;;;;;3.03;1.98;;;;;;;6.68;63.79;95199.41;5025593;28;20396;-79
2021/11/28 11:03:12;;;;;;;3.55;2.08;;;;;;;6.57;63.46;95198.66;5029190;28;20028;-79
2021/11/28 11:05:37;;;;;;;3.83;2.10;;;;;;;6.79;63.79;95204.50;5029480;28;20028;-79
2021/11/28 11:08:07;;;;;;;2.90;1.88;;;;;;;6.69;63.43;95202.75;5029852;28;20025;-79
2021/11/28 11:10:33;;;;;;;3.20;1.95;;;;;;;6.82;63.50;95199.56;5041075;28;20094;-78
2021/11/28 11:12:59;;;;;;;2.97;1.92;;;;;;;6.86;63.42;95202.38;5030978;28;20118;-78
2021/11/28 11:15:32;;;;;;;3.03;2.10;;;;;;;6.74;63.83;95203.47;5033320;28;20033;-79
2021/11/28 11:17:59;;;;;;;4.57;1.77;;;;;;;6.88;63.76;95201.06;5033075;28;20035;-79
2021/11/28 11:20:26;;;;;;;3.45;2.10;;;;;;;6.89;64.00;95194.88;5055340;28;20028;-79
2021/11/28 11:22:52;;;;;;;2.42;1.67;;;;;;;6.99;63.36;95198.41;5091750;28;20038;-79
2021/11/28 11:25:18;;;;;;;3.13;1.92;;;;;;;6.89;62.41;95189.69;5072741;28;20035;-79
2021/11/28 11:27:45;;;;;;;3.50;2.03;;;;;;;6.89;63.55;95194.88;5037337;28;20024;-79
2021/11/28 11:30:16;;;;;;;2.13;1.42;;;;;;;6.86;62.94;95197.22;5056276;28;20037;-79
2021/11/28 11:32:43;;;;;;;2.83;1.52;;;;;;;6.89;63.24;95200.03;5039817;28;20039;-79
2021/11/28 11:35:23;;;;;;;3.10;1.80;;;;;;;6.92;63.67;95198.72;5055884;28;20032;-79
2021/11/28 11:37:50;;;;;;;3.70;2.38;;;;;;;6.89;62.95;95194.88;5073323;28;20541;-79
2021/11/28 11:40:19;;;;;;;3.60;1.95;;;;;;;6.89;63.78;95188.94;5056571;28;20053;-79
2021/11/28 11:42:45;;;;;;;4.07;2.30;;;;;;;6.86;63.29;95192.03;5056377;28;20028;-79
2021/11/28 11:45:14;;;;;;;3.10;1.75;;;;;;;6.85;63.05;95196.44;5072710;28;20483;-78